sensor_id;sensor_type;location;lat;lon;timestamp;temperature;humidity
10384;DHT22;5238;43.508;4.980;2024-03-23T00:53:46;16.40;91.30
10384;DHT22;5238;43.508;4.980;2024-03-23T00:56:11;16.40;91.30
10384;DHT22;5238;43.508;4.980;2024-03-23T00:58:38;16.30;91.30
10384;DHT22;5238;43.508;4.980;2024-03-23T01:01:04;16.30;91.30
10384;DHT22;5238;43.508;4.980;2024-03-23T01:03:31;16.30;91.30
10384;DHT22;5238;43.508;4.980;2024-03-23T01:05:59;16.30;91.30
10384;DHT22;5238;43.508;4.980;2024-03-23T01:08:26;16.30;91.30
10384;DHT22;5238;43.508;4.980;2024-03-23T01:10:57;16.30;91.30
10384;DHT22;5238;43.508;4.980;2024-03-23T01:13:25;16.30;91.30
10384;DHT22;5238;43.508;4.980;2024-03-23T01:15:51;16.30;91.30
10384;DHT22;5238;43.508;4.980;2024-03-23T01:18:18;16.20;91.30
10384;DHT22;5238;43.508;4.980;2024-03-23T01:20:44;16.20;91.30
10384;DHT22;5238;43.508;4.980;2024-03-23T01:23:12;16.20;91.30
10384;DHT22;5238;43.508;4.980;2024-03-23T01:25:38;16.20;91.30
10384;DHT22;5238;43.508;4.980;2024-03-23T01:28:07;16.20;91.30
10384;DHT22;5238;43.508;4.980;2024-03-23T01:30:33;16.20;91.30
10384;DHT22;5238;43.508;4.980;2024-03-23T01:33:01;16.30;91.30
10384;DHT22;5238;43.508;4.980;2024-03-23T01:35:28;16.30;91.30
10384;DHT22;5238;43.508;4.980;2024-03-23T01:37:55;16.30;91.30
10384;DHT22;5238;43.508;4.980;2024-03-23T01:40:21;16.30;91.30
10384;DHT22;5238;43.508;4.980;2024-03-23T01:42:57;16.30;91.30
10384;DHT22;5238;43.508;4.980;2024-03-23T01:45:25;16.40;91.30
10384;DHT22;5238;43.508;4.980;2024-03-23T01:47:52;16.40;91.30
10384;DHT22;5238;43.508;4.980;2024-03-23T01:50:18;16.40;91.30
10384;DHT22;5238;43.508;4.980;2024-03-23T01:52:46;16.40;91.30
10384;DHT22;5238;43.508;4.980;2024-03-23T01:55:12;16.40;91.30
10384;DHT22;5238;43.508;4.980;2024-03-23T01:57:39;16.40;91.30
10384;DHT22;5238;43.508;4.980;2024-03-23T02:00:06;16.50;91.30
10384;DHT22;5238;43.508;4.980;2024-03-23T02:02:35;16.50;91.30
10384;DHT22;5238;43.508;4.980;2024-03-23T02:05:01;16.50;91.30
10384;DHT22;5238;43.508;4.980;2024-03-23T02:07:28;16.50;91.30
10384;DHT22;5238;43.508;4.980;2024-03-23T02:09:54;16.40;91.30
10384;DHT22;5238;43.508;4.980;2024-03-23T02:12:22;16.40;91.30
10384;DHT22;5238;43.508;4.980;2024-03-23T02:14:47;16.30;91.30
10384;DHT22;5238;43.508;4.980;2024-03-23T02:17:14;16.30;91.30
10384;DHT22;5238;43.508;4.980;2024-03-23T02:19:42;16.30;91.30
10384;DHT22;5238;43.508;4.980;2024-03-23T02:22:09;16.30;91.30
10384;DHT22;5238;43.508;4.980;2024-03-23T02:24:37;16.20;91.30
10384;DHT22;5238;43.508;4.980;2024-03-23T02:27:04;16.20;91.30
10384;DHT22;5238;43.508;4.980;2024-03-23T02:29:30;16.20;91.30
10384;DHT22;5238;43.508;4.980;2024-03-23T02:31:57;16.20;91.30
10384;DHT22;5238;43.508;4.980;2024-03-23T02:34:24;16.10;91.30
10384;DHT22;5238;43.508;4.980;2024-03-23T02:36:51;16.10;91.30
10384;DHT22;5238;43.508;4.980;2024-03-23T02:39:17;16.10;91.30
10384;DHT22;5238;43.508;4.980;2024-03-23T02:41:45;16.10;91.30
10384;DHT22;5238;43.508;4.980;2024-03-23T02:44:13;16.10;91.30
10384;DHT22;5238;43.508;4.980;2024-03-23T02:46:40;16.10;91.30
10384;DHT22;5238;43.508;4.980;2024-03-23T02:49:07;16.10;91.30
10384;DHT22;5238;43.508;4.980;2024-03-23T02:51:34;16.10;91.30
10384;DHT22;5238;43.508;4.980;2024-03-23T02:54:00;16.10;91.30
10384;DHT22;5238;43.508;4.980;2024-03-23T02:56:27;16.10;91.30
10384;DHT22;5238;43.508;4.980;2024-03-23T02:58:54;16.10;91.30
10384;DHT22;5238;43.508;4.980;2024-03-23T03:01:21;16.10;91.30
10384;DHT22;5238;43.508;4.980;2024-03-23T03:03:47;16.10;91.30
10384;DHT22;5238;43.508;4.980;2024-03-23T03:06:23;16.10;91.30
10384;DHT22;5238;43.508;4.980;2024-03-23T03:08:49;16.10;91.30
10384;DHT22;5238;43.508;4.980;2024-03-23T03:11:16;16.10;91.30
10384;DHT22;5238;43.508;4.980;2024-03-23T03:13:42;16.10;91.30
10384;DHT22;5238;43.508;4.980;2024-03-23T03:16:10;16.10;91.30
10384;DHT22;5238;43.508;4.980;2024-03-23T03:18:36;16.10;91.30
10384;DHT22;5238;43.508;4.980;2024-03-23T03:21:03;16.10;91.30
10384;DHT22;5238;43.508;4.980;2024-03-23T03:23:31;16.00;91.30
10384;DHT22;5238;43.508;4.980;2024-03-23T03:25:58;16.00;91.30
10384;DHT22;5238;43.508;4.980;2024-03-23T03:28:23;16.00;91.30
10384;DHT22;5238;43.508;4.980;2024-03-23T03:30:51;16.00;91.30
10384;DHT22;5238;43.508;4.980;2024-03-23T03:33:19;16.00;91.30
10384;DHT22;5238;43.508;4.980;2024-03-23T03:35:46;16.00;91.30
10384;DHT22;5238;43.508;4.980;2024-03-23T03:38:11;16.00;91.30
10384;DHT22;5238;43.508;4.980;2024-03-23T03:40:38;15.90;91.30
10384;DHT22;5238;43.508;4.980;2024-03-23T03:43:04;15.90;91.30
10384;DHT22;5238;43.508;4.980;2024-03-23T03:45:31;15.90;91.30
10384;DHT22;5238;43.508;4.980;2024-03-23T03:47:57;15.90;91.30
10384;DHT22;5238;43.508;4.980;2024-03-23T03:50:26;15.90;91.30
10384;DHT22;5238;43.508;4.980;2024-03-23T03:52:52;15.90;91.30
10384;DHT22;5238;43.508;4.980;2024-03-23T03:55:19;15.90;91.30
10384;DHT22;5238;43.508;4.980;2024-03-23T03:57:45;15.90;91.30
10384;DHT22;5238;43.508;4.980;2024-03-23T04:00:12;15.90;91.30
10384;DHT22;5238;43.508;4.980;2024-03-23T04:02:39;15.80;91.30
10384;DHT22;5238;43.508;4.980;2024-03-23T04:05:06;15.90;91.30
10384;DHT22;5238;43.508;4.980;2024-03-23T04:07:35;15.80;91.30
10384;DHT22;5238;43.508;4.980;2024-03-23T04:10:02;15.80;91.30
10384;DHT22;5238;43.508;4.980;2024-03-23T04:12:32;15.80;91.30
10384;DHT22;5238;43.508;4.980;2024-03-23T04:15:00;15.90;91.30
10384;DHT22;5238;43.508;4.980;2024-03-23T04:17:26;15.90;91.30
10384;DHT22;5238;43.508;4.980;2024-03-23T04:19:57;15.90;91.30
10384;DHT22;5238;43.508;4.980;2024-03-23T04:22:23;15.90;91.30
10384;DHT22;5238;43.508;4.980;2024-03-23T04:24:53;15.90;91.30
10384;DHT22;5238;43.508;4.980;2024-03-23T04:27:19;15.90;91.30
10384;DHT22;5238;43.508;4.980;2024-03-23T04:29:47;15.90;91.30
10384;DHT22;5238;43.508;4.980;2024-03-23T04:32:14;15.90;91.30
10384;DHT22;5238;43.508;4.980;2024-03-23T04:34:41;15.90;91.30
10384;DHT22;5238;43.508;4.980;2024-03-23T04:37:07;15.90;91.30
10384;DHT22;5238;43.508;4.980;2024-03-23T04:39:34;15.90;91.30
10384;DHT22;5238;43.508;4.980;2024-03-23T04:42:03;15.90;91.30
10384;DHT22;5238;43.508;4.980;2024-03-23T04:44:30;15.90;91.30
10384;DHT22;5238;43.508;4.980;2024-03-23T04:46:57;15.90;91.30
10384;DHT22;5238;43.508;4.980;2024-03-23T04:49:24;15.90;91.30
10384;DHT22;5238;43.508;4.980;2024-03-23T04:51:51;15.90;91.30
10384;DHT22;5238;43.508;4.980;2024-03-23T04:54:18;15.80;91.30
10384;DHT22;5238;43.508;4.980;2024-03-23T04:56:46;15.80;91.30
10384;DHT22;5238;43.508;4.980;2024-03-23T04:59:14;15.80;91.30
10384;DHT22;5238;43.508;4.980;2024-03-23T05:01:40;15.90;91.30
10384;DHT22;5238;43.508;4.980;2024-03-23T05:04:08;15.80;91.30
10384;DHT22;5238;43.508;4.980;2024-03-23T05:06:34;15.80;91.30
10384;DHT22;5238;43.508;4.980;2024-03-23T05:09:01;15.90;91.30
10384;DHT22;5238;43.508;4.980;2024-03-23T05:11:31;15.90;91.30
10384;DHT22;5238;43.508;4.980;2024-03-23T05:13:58;15.90;91.30
10384;DHT22;5238;43.508;4.980;2024-03-23T05:16:26;15.90;91.30
10384;DHT22;5238;43.508;4.980;2024-03-23T05:18:53;15.90;91.30
10384;DHT22;5238;43.508;4.980;2024-03-23T05:21:19;15.90;91.30
10384;DHT22;5238;43.508;4.980;2024-03-23T05:23:47;15.90;91.30
10384;DHT22;5238;43.508;4.980;2024-03-23T05:26:13;16.00;91.30
10384;DHT22;5238;43.508;4.980;2024-03-23T05:28:40;16.00;91.30
10384;DHT22;5238;43.508;4.980;2024-03-23T05:31:06;16.00;91.30
10384;DHT22;5238;43.508;4.980;2024-03-23T05:33:35;16.00;91.30
10384;DHT22;5238;43.508;4.980;2024-03-23T05:36:04;16.00;91.30
10384;DHT22;5238;43.508;4.980;2024-03-23T05:38:34;16.10;91.30
10384;DHT22;5238;43.508;4.980;2024-03-23T05:41:00;16.10;91.30
10384;DHT22;5238;43.508;4.980;2024-03-23T05:43:28;16.10;91.30
10384;DHT22;5238;43.508;4.980;2024-03-23T05:45:54;16.20;91.30
10384;DHT22;5238;43.508;4.980;2024-03-23T05:48:21;16.20;91.30
10384;DHT22;5238;43.508;4.980;2024-03-23T05:50:49;16.30;91.30
10384;DHT22;5238;43.508;4.980;2024-03-23T05:53:16;16.30;91.30
10384;DHT22;5238;43.508;4.980;2024-03-23T05:55:43;16.30;91.30
10384;DHT22;5238;43.508;4.980;2024-03-23T05:58:10;16.30;91.30
10384;DHT22;5238;43.508;4.980;2024-03-23T06:00:36;16.30;91.30
10384;DHT22;5238;43.508;4.980;2024-03-23T06:03:03;16.30;91.30
10384;DHT22;5238;43.508;4.980;2024-03-23T06:05:30;16.30;91.30
10384;DHT22;5238;43.508;4.980;2024-03-23T06:07:58;16.30;91.30
10384;DHT22;5238;43.508;4.980;2024-03-23T06:10:24;16.30;91.30
10384;DHT22;5238;43.508;4.980;2024-03-23T06:12:51;16.30;91.30
10384;DHT22;5238;43.508;4.980;2024-03-23T06:15:17;16.20;91.30
10384;DHT22;5238;43.508;4.980;2024-03-23T06:17:44;16.20;91.30
10384;DHT22;5238;43.508;4.980;2024-03-23T06:20:10;16.20;91.30
10384;DHT22;5238;43.508;4.980;2024-03-23T06:22:38;16.20;91.30
10384;DHT22;5238;43.508;4.980;2024-03-23T06:25:06;16.20;91.30
10384;DHT22;5238;43.508;4.980;2024-03-23T06:27:34;16.20;91.30
10384;DHT22;5238;43.508;4.980;2024-03-23T06:30:00;16.20;91.30
10384;DHT22;5238;43.508;4.980;2024-03-23T06:32:28;16.20;91.30
10384;DHT22;5238;43.508;4.980;2024-03-23T06:34:54;16.20;91.30
10384;DHT22;5238;43.508;4.980;2024-03-23T06:37:22;16.20;91.30
10384;DHT22;5238;43.508;4.980;2024-03-23T06:39:48;16.30;91.30
10384;DHT22;5238;43.508;4.980;2024-03-23T06:42:16;16.30;91.30
10384;DHT22;5238;43.508;4.980;2024-03-23T06:44:43;16.30;91.30
10384;DHT22;5238;43.508;4.980;2024-03-23T06:47:10;16.30;91.30
10384;DHT22;5238;43.508;4.980;2024-03-23T06:49:36;16.40;91.30
10384;DHT22;5238;43.508;4.980;2024-03-23T06:52:03;16.40;91.30
10384;DHT22;5238;43.508;4.980;2024-03-23T06:54:29;16.40;91.30
10384;DHT22;5238;43.508;4.980;2024-03-23T06:56:56;16.50;91.30
10384;DHT22;5238;43.508;4.980;2024-03-23T06:59:24;16.50;91.30
10384;DHT22;5238;43.508;4.980;2024-03-23T07:01:51;16.50;91.30
10384;DHT22;5238;43.508;4.980;2024-03-23T07:04:17;16.60;91.30
10384;DHT22;5238;43.508;4.980;2024-03-23T07:06:44;16.70;91.30
10384;DHT22;5238;43.508;4.980;2024-03-23T07:09:10;16.70;91.30
10384;DHT22;5238;43.508;4.980;2024-03-23T07:11:37;16.80;91.30
10384;DHT22;5238;43.508;4.980;2024-03-23T07:14:03;16.80;91.30
10384;DHT22;5238;43.508;4.980;2024-03-23T07:16:32;16.80;91.30
10384;DHT22;5238;43.508;4.980;2024-03-23T07:18:57;16.80;91.30
10384;DHT22;5238;43.508;4.980;2024-03-23T07:21:25;16.90;91.30
10384;DHT22;5238;43.508;4.980;2024-03-23T07:23:51;17.00;91.30
10384;DHT22;5238;43.508;4.980;2024-03-23T07:26:18;17.00;91.30
10384;DHT22;5238;43.508;4.980;2024-03-23T07:28:44;17.10;91.30
10384;DHT22;5238;43.508;4.980;2024-03-23T07:31:13;17.20;91.30
10384;DHT22;5238;43.508;4.980;2024-03-23T07:33:45;17.30;91.30
10384;DHT22;5238;43.508;4.980;2024-03-23T07:36:12;17.40;91.30
10384;DHT22;5238;43.508;4.980;2024-03-23T07:38:40;17.50;91.30
10384;DHT22;5238;43.508;4.980;2024-03-23T07:41:10;17.60;91.30
10384;DHT22;5238;43.508;4.980;2024-03-23T07:43:37;17.80;91.30
10384;DHT22;5238;43.508;4.980;2024-03-23T07:46:04;18.10;91.30
10384;DHT22;5238;43.508;4.980;2024-03-23T07:48:31;18.40;91.30
10384;DHT22;5238;43.508;4.980;2024-03-23T07:51:00;18.70;91.30
10384;DHT22;5238;43.508;4.980;2024-03-23T07:53:28;19.20;91.30
10384;DHT22;5238;43.508;4.980;2024-03-23T07:55:58;19.60;91.30
10384;DHT22;5238;43.508;4.980;2024-03-23T07:58:25;20.00;91.30
10384;DHT22;5238;43.508;4.980;2024-03-23T08:00:52;20.50;91.30
10384;DHT22;5238;43.508;4.980;2024-03-23T08:03:19;20.80;91.30
10384;DHT22;5238;43.508;4.980;2024-03-23T08:05:45;21.00;91.30
10384;DHT22;5238;43.508;4.980;2024-03-23T08:08:14;21.40;91.30
10384;DHT22;5238;43.508;4.980;2024-03-23T08:10:48;21.50;91.30
10384;DHT22;5238;43.508;4.980;2024-03-23T08:13:15;21.80;91.30
10384;DHT22;5238;43.508;4.980;2024-03-23T08:15:41;22.00;91.30
10384;DHT22;5238;43.508;4.980;2024-03-23T08:18:08;22.10;91.30
10384;DHT22;5238;43.508;4.980;2024-03-23T08:20:34;22.30;91.30
10384;DHT22;5238;43.508;4.980;2024-03-23T08:23:01;22.50;91.30
10384;DHT22;5238;43.508;4.980;2024-03-23T08:25:31;22.70;91.30
10384;DHT22;5238;43.508;4.980;2024-03-23T08:27:58;23.00;91.30
10384;DHT22;5238;43.508;4.980;2024-03-23T08:30:24;23.00;91.30
10384;DHT22;5238;43.508;4.980;2024-03-23T08:32:51;23.10;91.30
10384;DHT22;5238;43.508;4.980;2024-03-23T08:35:17;23.10;91.30
10384;DHT22;5238;43.508;4.980;2024-03-23T08:37:44;23.20;91.30
10384;DHT22;5238;43.508;4.980;2024-03-23T08:40:11;23.30;91.30
10384;DHT22;5238;43.508;4.980;2024-03-23T08:42:39;23.40;91.30
10384;DHT22;5238;43.508;4.980;2024-03-23T08:45:06;23.50;91.30
10384;DHT22;5238;43.508;4.980;2024-03-23T08:47:34;23.70;91.30
10384;DHT22;5238;43.508;4.980;2024-03-23T08:50:01;23.80;91.30
10384;DHT22;5238;43.508;4.980;2024-03-23T08:52:29;23.70;91.30
10384;DHT22;5238;43.508;4.980;2024-03-23T08:54:55;23.60;91.30
10384;DHT22;5238;43.508;4.980;2024-03-23T08:57:22;23.50;91.30
10384;DHT22;5238;43.508;4.980;2024-03-23T08:59:50;23.40;91.30
10384;DHT22;5238;43.508;4.980;2024-03-23T09:02:17;23.40;91.30
10384;DHT22;5238;43.508;4.980;2024-03-23T09:04:44;23.50;91.30
10384;DHT22;5238;43.508;4.980;2024-03-23T09:07:14;23.60;91.30
10384;DHT22;5238;43.508;4.980;2024-03-23T09:09:40;23.80;91.30
10384;DHT22;5238;43.508;4.980;2024-03-23T09:12:07;24.00;91.30
10384;DHT22;5238;43.508;4.980;2024-03-23T09:14:34;24.20;91.30
10384;DHT22;5238;43.508;4.980;2024-03-23T09:17:08;24.30;91.30
10384;DHT22;5238;43.508;4.980;2024-03-23T09:19:35;24.50;91.30
10384;DHT22;5238;43.508;4.980;2024-03-23T09:22:02;24.80;91.30
10384;DHT22;5238;43.508;4.980;2024-03-23T09:24:28;25.00;91.30
10384;DHT22;5238;43.508;4.980;2024-03-23T09:26:55;25.20;91.30
10384;DHT22;5238;43.508;4.980;2024-03-23T09:29:21;25.40;91.30
10384;DHT22;5238;43.508;4.980;2024-03-23T09:31:48;25.60;91.30
10384;DHT22;5238;43.508;4.980;2024-03-23T09:34:16;25.80;91.30
10384;DHT22;5238;43.508;4.980;2024-03-23T09:36:43;26.00;91.30
10384;DHT22;5238;43.508;4.980;2024-03-23T09:39:09;26.20;91.30
10384;DHT22;5238;43.508;4.980;2024-03-23T09:41:36;26.30;91.30
10384;DHT22;5238;43.508;4.980;2024-03-23T09:44:02;26.60;91.30
10384;DHT22;5238;43.508;4.980;2024-03-23T09:46:30;26.80;91.30
10384;DHT22;5238;43.508;4.980;2024-03-23T09:49:00;27.00;91.30
10384;DHT22;5238;43.508;4.980;2024-03-23T09:51:31;27.20;91.30
10384;DHT22;5238;43.508;4.980;2024-03-23T09:53:57;27.50;91.30
10384;DHT22;5238;43.508;4.980;2024-03-23T09:56:24;27.60;91.30
10384;DHT22;5238;43.508;4.980;2024-03-23T09:58:50;27.80;91.30
10384;DHT22;5238;43.508;4.980;2024-03-23T10:01:21;27.90;91.30
10384;DHT22;5238;43.508;4.980;2024-03-23T10:03:47;28.00;91.30
10384;DHT22;5238;43.508;4.980;2024-03-23T10:06:14;28.00;91.30
10384;DHT22;5238;43.508;4.980;2024-03-23T10:08:41;28.10;91.30
10384;DHT22;5238;43.508;4.980;2024-03-23T10:11:16;27.90;91.30
10384;DHT22;5238;43.508;4.980;2024-03-23T10:13:43;27.70;91.30
10384;DHT22;5238;43.508;4.980;2024-03-23T10:16:12;27.50;91.30
10384;DHT22;5238;43.508;4.980;2024-03-23T10:18:38;27.30;91.30
10384;DHT22;5238;43.508;4.980;2024-03-23T10:21:09;27.30;91.30
10384;DHT22;5238;43.508;4.980;2024-03-23T10:23:37;27.30;91.30
10384;DHT22;5238;43.508;4.980;2024-03-23T10:26:19;27.30;91.30
10384;DHT22;5238;43.508;4.980;2024-03-23T10:28:54;27.40;91.30
10384;DHT22;5238;43.508;4.980;2024-03-23T10:31:23;27.40;91.30
10384;DHT22;5238;43.508;4.980;2024-03-23T10:33:50;27.40;91.30
10384;DHT22;5238;43.508;4.980;2024-03-23T10:36:20;27.10;91.30
10384;DHT22;5238;43.508;4.980;2024-03-23T10:38:48;27.20;91.30
10384;DHT22;5238;43.508;4.980;2024-03-23T10:41:15;27.20;91.30
10384;DHT22;5238;43.508;4.980;2024-03-23T10:43:45;27.20;91.30
10384;DHT22;5238;43.508;4.980;2024-03-23T10:46:12;27.00;91.30
10384;DHT22;5238;43.508;4.980;2024-03-23T10:48:39;26.80;91.30
10384;DHT22;5238;43.508;4.980;2024-03-23T10:51:07;26.70;91.30
10384;DHT22;5238;43.508;4.980;2024-03-23T10:53:34;26.50;91.30
10384;DHT22;5238;43.508;4.980;2024-03-23T10:56:03;26.50;91.30
10384;DHT22;5238;43.508;4.980;2024-03-23T10:58:32;26.60;91.30
10384;DHT22;5238;43.508;4.980;2024-03-23T11:01:02;26.60;91.30
10384;DHT22;5238;43.508;4.980;2024-03-23T11:03:31;26.60;91.30
10384;DHT22;5238;43.508;4.980;2024-03-23T11:05:57;26.60;91.30
10384;DHT22;5238;43.508;4.980;2024-03-23T11:08:31;26.70;91.30
10384;DHT22;5238;43.508;4.980;2024-03-23T11:11:12;26.70;91.30
10384;DHT22;5238;43.508;4.980;2024-03-23T11:13:39;26.40;91.30
10384;DHT22;5238;43.508;4.980;2024-03-23T11:16:15;26.10;91.30
10384;DHT22;5238;43.508;4.980;2024-03-23T11:19:35;25.80;91.30
10384;DHT22;5238;43.508;4.980;2024-03-23T11:22:03;25.50;91.30
10384;DHT22;5238;43.508;4.980;2024-03-23T11:24:30;25.30;91.30
10384;DHT22;5238;43.508;4.980;2024-03-23T11:26:57;25.00;91.30
10384;DHT22;5238;43.508;4.980;2024-03-23T11:29:26;24.70;91.30
10384;DHT22;5238;43.508;4.980;2024-03-23T11:31:53;24.50;91.30
10384;DHT22;5238;43.508;4.980;2024-03-23T11:34:20;24.40;91.30
10384;DHT22;5238;43.508;4.980;2024-03-23T11:36:47;24.30;91.30
10384;DHT22;5238;43.508;4.980;2024-03-23T11:39:17;24.30;91.30
10384;DHT22;5238;43.508;4.980;2024-03-23T11:41:47;24.30;91.30
10384;DHT22;5238;43.508;4.980;2024-03-23T11:44:15;24.20;91.30
10384;DHT22;5238;43.508;4.980;2024-03-23T11:46:42;24.20;91.30
10384;DHT22;5238;43.508;4.980;2024-03-23T11:49:21;24.10;91.30
10384;DHT22;5238;43.508;4.980;2024-03-23T11:51:51;24.10;91.30
10384;DHT22;5238;43.508;4.980;2024-03-23T11:54:21;24.10;91.30
10384;DHT22;5238;43.508;4.980;2024-03-23T11:56:57;24.00;91.30
10384;DHT22;5238;43.508;4.980;2024-03-23T11:59:34;23.90;91.30
10384;DHT22;5238;43.508;4.980;2024-03-23T12:02:06;23.90;91.30
10384;DHT22;5238;43.508;4.980;2024-03-23T12:04:34;23.80;91.30
10384;DHT22;5238;43.508;4.980;2024-03-23T12:07:12;23.70;91.30
10384;DHT22;5238;43.508;4.980;2024-03-23T12:09:39;23.70;91.30
10384;DHT22;5238;43.508;4.980;2024-03-23T12:12:08;23.60;91.30
10384;DHT22;5238;43.508;4.980;2024-03-23T12:14:35;23.70;91.30
10384;DHT22;5238;43.508;4.980;2024-03-23T12:17:10;23.70;91.30
10384;DHT22;5238;43.508;4.980;2024-03-23T12:19:39;23.70;91.30
10384;DHT22;5238;43.508;4.980;2024-03-23T12:22:07;23.70;91.30
10384;DHT22;5238;43.508;4.980;2024-03-23T12:24:34;23.70;91.30
10384;DHT22;5238;43.508;4.980;2024-03-23T12:27:02;23.70;91.30
10384;DHT22;5238;43.508;4.980;2024-03-23T12:29:30;23.60;91.30
10384;DHT22;5238;43.508;4.980;2024-03-23T12:31:59;23.50;91.30
10384;DHT22;5238;43.508;4.980;2024-03-23T12:34:26;23.40;91.30
10384;DHT22;5238;43.508;4.980;2024-03-23T12:36:53;23.40;91.30
10384;DHT22;5238;43.508;4.980;2024-03-23T12:39:20;23.40;91.30
10384;DHT22;5238;43.508;4.980;2024-03-23T12:41:47;23.30;91.30
10384;DHT22;5238;43.508;4.980;2024-03-23T12:44:14;23.20;91.30
10384;DHT22;5238;43.508;4.980;2024-03-23T12:46:41;23.20;91.30
10384;DHT22;5238;43.508;4.980;2024-03-23T12:49:08;23.10;91.30
10384;DHT22;5238;43.508;4.980;2024-03-23T12:51:34;23.10;91.30
10384;DHT22;5238;43.508;4.980;2024-03-23T12:54:03;23.10;91.30
10384;DHT22;5238;43.508;4.980;2024-03-23T12:56:29;23.00;91.30
10384;DHT22;5238;43.508;4.980;2024-03-23T12:58:56;23.00;91.30
10384;DHT22;5238;43.508;4.980;2024-03-23T13:01:23;22.90;91.30
10384;DHT22;5238;43.508;4.980;2024-03-23T13:03:50;22.80;91.30
10384;DHT22;5238;43.508;4.980;2024-03-23T13:06:16;22.80;91.30
10384;DHT22;5238;43.508;4.980;2024-03-23T13:08:44;22.80;91.30
10384;DHT22;5238;43.508;4.980;2024-03-23T13:11:12;22.80;91.30
10384;DHT22;5238;43.508;4.980;2024-03-23T13:13:41;22.80;91.30
10384;DHT22;5238;43.508;4.980;2024-03-23T13:16:07;22.70;91.30
10384;DHT22;5238;43.508;4.980;2024-03-23T13:18:35;22.70;91.30
10384;DHT22;5238;43.508;4.980;2024-03-23T13:21:01;22.70;91.30
10384;DHT22;5238;43.508;4.980;2024-03-23T13:23:28;22.60;91.30
10384;DHT22;5238;43.508;4.980;2024-03-23T13:25:55;22.60;91.30
10384;DHT22;5238;43.508;4.980;2024-03-23T13:28:24;22.60;91.30
10384;DHT22;5238;43.508;4.980;2024-03-23T13:30:51;22.60;91.30
10384;DHT22;5238;43.508;4.980;2024-03-23T13:33:18;22.60;91.30
10384;DHT22;5238;43.508;4.980;2024-03-23T13:35:50;22.50;91.30
10384;DHT22;5238;43.508;4.980;2024-03-23T13:38:17;22.50;91.30
10384;DHT22;5238;43.508;4.980;2024-03-23T13:40:54;22.50;91.30
10384;DHT22;5238;43.508;4.980;2024-03-23T13:43:22;22.40;91.30
10384;DHT22;5238;43.508;4.980;2024-03-23T13:45:53;22.30;91.30
10384;DHT22;5238;43.508;4.980;2024-03-23T13:48:20;22.30;91.30
10384;DHT22;5238;43.508;4.980;2024-03-23T13:50:47;22.30;91.30
10384;DHT22;5238;43.508;4.980;2024-03-23T13:53:14;22.30;91.30
10384;DHT22;5238;43.508;4.980;2024-03-23T13:55:46;22.30;91.30
10384;DHT22;5238;43.508;4.980;2024-03-23T13:58:14;22.30;91.30
10384;DHT22;5238;43.508;4.980;2024-03-23T14:00:40;22.20;91.30
10384;DHT22;5238;43.508;4.980;2024-03-23T14:03:09;22.20;91.30
10384;DHT22;5238;43.508;4.980;2024-03-23T14:05:36;22.20;91.30
10384;DHT22;5238;43.508;4.980;2024-03-23T14:08:04;22.10;91.30
10384;DHT22;5238;43.508;4.980;2024-03-23T14:10:30;22.10;91.30
10384;DHT22;5238;43.508;4.980;2024-03-23T14:12:57;22.10;91.30
10384;DHT22;5238;43.508;4.980;2024-03-23T14:15:25;22.10;91.30
10384;DHT22;5238;43.508;4.980;2024-03-23T14:17:52;22.10;91.30
10384;DHT22;5238;43.508;4.980;2024-03-23T14:20:21;22.10;91.30
10384;DHT22;5238;43.508;4.980;2024-03-23T14:22:49;22.10;91.30
10384;DHT22;5238;43.508;4.980;2024-03-23T14:25:15;22.10;91.30
10384;DHT22;5238;43.508;4.980;2024-03-23T14:27:44;22.10;91.30
10384;DHT22;5238;43.508;4.980;2024-03-23T14:30:11;22.10;91.30
10384;DHT22;5238;43.508;4.980;2024-03-23T14:32:39;22.10;91.30
10384;DHT22;5238;43.508;4.980;2024-03-23T14:35:05;22.10;91.30
10384;DHT22;5238;43.508;4.980;2024-03-23T14:37:34;22.10;91.30
10384;DHT22;5238;43.508;4.980;2024-03-23T14:40:00;22.00;91.30
10384;DHT22;5238;43.508;4.980;2024-03-23T14:42:28;22.00;91.30
10384;DHT22;5238;43.508;4.980;2024-03-23T14:44:54;22.00;91.30
10384;DHT22;5238;43.508;4.980;2024-03-23T14:47:21;22.00;91.30
10384;DHT22;5238;43.508;4.980;2024-03-23T14:49:47;22.00;91.30
10384;DHT22;5238;43.508;4.980;2024-03-23T14:52:16;22.00;91.30
10384;DHT22;5238;43.508;4.980;2024-03-23T14:54:43;22.00;91.30
10384;DHT22;5238;43.508;4.980;2024-03-23T14:57:11;22.00;91.30
10384;DHT22;5238;43.508;4.980;2024-03-23T14:59:37;21.90;91.30
10384;DHT22;5238;43.508;4.980;2024-03-23T15:02:06;21.90;91.30
10384;DHT22;5238;43.508;4.980;2024-03-23T15:04:32;21.90;91.30
10384;DHT22;5238;43.508;4.980;2024-03-23T15:06:59;21.90;91.30
10384;DHT22;5238;43.508;4.980;2024-03-23T15:09:25;21.90;91.30
10384;DHT22;5238;43.508;4.980;2024-03-23T15:11:54;21.90;91.30
10384;DHT22;5238;43.508;4.980;2024-03-23T15:14:21;21.90;91.30
10384;DHT22;5238;43.508;4.980;2024-03-23T15:16:48;21.90;91.30
10384;DHT22;5238;43.508;4.980;2024-03-23T15:19:14;21.90;91.30
10384;DHT22;5238;43.508;4.980;2024-03-23T15:21:43;21.90;91.30
10384;DHT22;5238;43.508;4.980;2024-03-23T15:24:09;21.80;91.30
10384;DHT22;5238;43.508;4.980;2024-03-23T15:26:37;21.80;91.30
10384;DHT22;5238;43.508;4.980;2024-03-23T15:29:04;21.80;91.30
10384;DHT22;5238;43.508;4.980;2024-03-23T15:31:37;21.80;91.30
10384;DHT22;5238;43.508;4.980;2024-03-23T15:34:03;21.70;91.30
10384;DHT22;5238;43.508;4.980;2024-03-23T15:36:31;21.70;91.30
10384;DHT22;5238;43.508;4.980;2024-03-23T15:38:57;21.70;91.30
10384;DHT22;5238;43.508;4.980;2024-03-23T15:41:24;21.60;91.30
10384;DHT22;5238;43.508;4.980;2024-03-23T15:43:50;21.60;91.30
10384;DHT22;5238;43.508;4.980;2024-03-23T15:46:18;21.60;91.30
10384;DHT22;5238;43.508;4.980;2024-03-23T15:48:45;21.50;91.30
10384;DHT22;5238;43.508;4.980;2024-03-23T15:51:14;21.50;91.30
10384;DHT22;5238;43.508;4.980;2024-03-23T15:53:40;21.50;91.30
10384;DHT22;5238;43.508;4.980;2024-03-23T15:56:08;21.50;91.30
10384;DHT22;5238;43.508;4.980;2024-03-23T15:58:34;21.50;91.30
10384;DHT22;5238;43.508;4.980;2024-03-23T16:01:02;21.50;91.30
10384;DHT22;5238;43.508;4.980;2024-03-23T16:03:30;21.50;91.30
10384;DHT22;5238;43.508;4.980;2024-03-23T16:06:00;21.40;91.30
10384;DHT22;5238;43.508;4.980;2024-03-23T16:08:26;21.40;91.30
10384;DHT22;5238;43.508;4.980;2024-03-23T16:10:54;21.40;91.30
10384;DHT22;5238;43.508;4.980;2024-03-23T16:13:20;21.40;91.30
10384;DHT22;5238;43.508;4.980;2024-03-23T16:15:55;21.30;91.30
10384;DHT22;5238;43.508;4.980;2024-03-23T16:18:21;21.30;91.30
10384;DHT22;5238;43.508;4.980;2024-03-23T16:20:54;21.20;91.30
10384;DHT22;5238;43.508;4.980;2024-03-23T16:23:21;21.20;91.30
10384;DHT22;5238;43.508;4.980;2024-03-23T16:25:49;21.10;91.30
10384;DHT22;5238;43.508;4.980;2024-03-23T16:28:23;21.10;91.30
10384;DHT22;5238;43.508;4.980;2024-03-23T16:31:00;21.00;91.30
10384;DHT22;5238;43.508;4.980;2024-03-23T16:33:28;21.00;91.30
10384;DHT22;5238;43.508;4.980;2024-03-23T16:36:00;20.90;91.30
10384;DHT22;5238;43.508;4.980;2024-03-23T16:38:27;20.90;91.30
10384;DHT22;5238;43.508;4.980;2024-03-23T16:40:54;20.90;91.30